createdAt,value
2023-03-02T00:02:23.035Z,119.80
2023-03-02T00:05:57.445Z,118.40
2023-03-02T00:09:30.552Z,107.00
2023-03-02T00:13:00.035Z,116.90
2023-03-02T00:16:39.720Z,99.80
2023-03-02T00:20:14.916Z,96.00
2023-03-02T00:23:48.771Z,109.80
2023-03-02T00:27:24.316Z,102.50
2023-03-02T00:30:59.109Z,96.80
2023-03-02T00:35:28.101Z,103.20
2023-03-02T00:39:57.030Z,109.10
2023-03-02T00:43:38.392Z,85.90
2023-03-02T00:46:46.702Z,108.30
2023-03-02T00:51:15.718Z,114.70
2023-03-02T00:55:44.809Z,114.70
2023-03-02T01:03:30.919Z,117.70
2023-03-02T01:11:16.385Z,100.00
2023-03-02T01:15:45.481Z,98.10
2023-03-02T01:20:14.508Z,96.10
2023-03-02T01:24:43.933Z,102.10
2023-03-02T01:31:29.868Z,163.90
2023-03-02T01:35:03.837Z,203.20
2023-03-02T01:39:22.381Z,159.20
2023-03-02T01:43:54.504Z,131.20
2023-03-02T01:48:36.025Z,114.70
2023-03-02T01:52:10.272Z,108.40
2023-03-02T01:56:28.391Z,97.60
2023-03-02T02:03:30.805Z,68.30
2023-03-02T02:07:12.072Z,76.10
2023-03-02T02:10:43.137Z,69.40
2023-03-02T02:14:54.720Z,72.10
2023-03-02T02:18:25.765Z,75.10
2023-03-02T02:21:56.721Z,75.40
2023-03-02T02:25:26.797Z,90.50
2023-03-02T02:29:01.472Z,98.00
2023-03-02T02:32:35.111Z,88.70
2023-03-02T02:36:06.340Z,91.60
2023-03-02T02:39:39.626Z,76.90
2023-03-02T02:43:10.176Z,80.30
2023-03-02T02:46:41.461Z,87.80
2023-03-02T02:50:12.467Z,91.90
2023-03-02T02:53:52.081Z,99.80
2023-03-02T02:57:22.811Z,94.50
2023-03-02T03:00:55.796Z,90.00
2023-03-02T03:04:24.813Z,95.00
2023-03-02T03:07:57.789Z,85.60
2023-03-02T03:11:28.787Z,78.00
2023-03-02T03:18:30.888Z,93.80
2023-03-02T03:21:43.787Z,92.40
2023-03-02T03:25:15.723Z,88.70
2023-03-02T03:28:34.692Z,83.30
2023-03-02T03:31:57.312Z,83.60
2023-03-02T03:35:28.207Z,85.00
2023-03-02T03:38:58.897Z,80.60
2023-03-02T03:42:33.629Z,88.50
2023-03-02T03:46:07.771Z,87.50
2023-03-02T03:50:30.544Z,98.80
2023-03-02T03:54:59.539Z,89.50
2023-03-02T03:59:28.488Z,90.60
2023-03-02T04:03:30.007Z,70.80
2023-03-02T04:07:48.226Z,80.80
2023-03-02T04:14:53.727Z,83.60
2023-03-02T04:18:03.884Z,85.40
2023-03-02T04:21:37.975Z,91.10
2023-03-02T04:25:08.625Z,86.30
2023-03-02T04:28:38.923Z,85.20
2023-03-02T04:39:36.014Z,97.20
2023-03-02T04:43:32.412Z,89.50
2023-03-02T04:47:33.571Z,88.30
2023-03-02T04:50:54.993Z,94.80
2023-03-02T04:54:29.416Z,105.70
2023-03-02T04:57:57.861Z,157.40
2023-03-02T05:09:06.867Z,132.50
2023-03-02T05:12:15.783Z,146.10
2023-03-02T05:15:46.896Z,111.70
2023-03-02T05:19:25.972Z,104.90
2023-03-02T05:22:59.882Z,95.00
2023-03-02T05:27:18.216Z,100.00
2023-03-02T05:31:09.711Z,95.70
2023-03-02T05:34:43.008Z,83.40
2023-03-02T05:38:16.861Z,84.60
2023-03-02T05:41:50.671Z,82.20
2023-03-02T05:45:21.900Z,85.80
2023-03-02T05:48:52.814Z,88.00
2023-03-02T05:52:27.456Z,90.40
2023-03-02T05:55:52.873Z,96.90
2023-03-02T05:59:23.553Z,86.80
2023-03-02T06:02:21.404Z,76.20
2023-03-02T06:04:50.186Z,80.20
2023-03-02T06:07:18.666Z,84.70
2023-03-02T06:09:47.030Z,78.40
2023-03-02T06:12:16.186Z,80.90
2023-03-02T06:14:44.788Z,87.40
2023-03-02T06:17:27.628Z,83.90
2023-03-02T06:20:11.543Z,77.80
2023-03-02T06:22:46.204Z,84.10
2023-03-02T06:28:25.253Z,80.70
2023-03-02T06:31:07.306Z,81.00
2023-03-02T06:33:49.966Z,88.90
2023-03-02T06:36:32.392Z,86.40
2023-03-02T06:39:17.366Z,75.90
2023-03-02T06:42:00.346Z,79.50
2023-03-02T06:44:28.805Z,83.30
2023-03-02T06:46:57.194Z,75.90
2023-03-02T06:49:39.132Z,84.70
2023-03-02T06:52:07.612Z,69.40
2023-03-02T06:54:49.609Z,110.00
2023-03-02T07:00:29.933Z,126.10
2023-03-02T07:03:12.170Z,113.60
2023-03-02T07:05:40.330Z,112.30
2023-03-02T07:08:22.369Z,117.50
2023-03-02T07:11:13.033Z,107.70
2023-03-02T07:13:41.315Z,117.30
2023-03-02T07:16:23.353Z,126.10
2023-03-02T07:19:05.304Z,82.80
2023-03-02T07:21:33.805Z,110.80
2023-03-02T07:24:02.076Z,119.30
2023-03-02T07:26:44.209Z,123.30
2023-03-02T07:29:15.242Z,124.00
2023-03-02T07:31:44.479Z,126.30
2023-03-02T07:37:08.765Z,143.40
2023-03-02T07:39:50.885Z,135.90
2023-03-02T07:42:34.181Z,137.20
2023-03-02T07:45:21.561Z,127.30
2023-03-02T07:48:04.542Z,121.80
2023-03-02T07:50:46.920Z,123.40
2023-03-02T07:56:25.396Z,111.20
2023-03-02T08:01:50.210Z,115.90
2023-03-02T08:04:35.688Z,120.80
2023-03-02T08:07:18.251Z,121.10
2023-03-02T08:10:01.178Z,113.10
2023-03-02T08:12:44.255Z,122.30
2023-03-02T08:15:26.453Z,118.10
2023-03-02T08:17:54.770Z,115.60
2023-03-02T08:20:38.374Z,120.30
2023-03-02T08:23:06.633Z,101.40
2023-03-02T08:25:49.064Z,99.80
2023-03-02T08:28:31.188Z,69.70
2023-03-02T08:31:01.855Z,91.20
2023-03-02T08:33:31.263Z,86.90
2023-03-02T08:36:11.310Z,75.90
2023-03-02T08:41:37.624Z,89.80
2023-03-02T08:44:24.527Z,73.50
2023-03-02T08:49:51.469Z,66.40
2023-03-02T08:52:34.981Z,91.60
2023-03-02T08:55:04.149Z,92.20
2023-03-02T08:57:46.605Z,72.20
2023-03-02T09:03:12.595Z,68.10
2023-03-02T09:05:41.157Z,58.50
2023-03-02T09:08:10.649Z,69.90
2023-03-02T09:10:40.225Z,79.60
2023-03-02T09:13:08.992Z,81.80
2023-03-02T09:15:37.557Z,88.30
2023-03-02T09:18:19.604Z,87.90
2023-03-02T09:23:58.560Z,88.30
2023-03-02T09:26:27.767Z,78.00
2023-03-02T09:29:10.374Z,71.50
2023-03-02T09:31:38.959Z,80.70
2023-03-02T09:34:21.969Z,82.90
2023-03-02T09:36:50.310Z,77.20
2023-03-02T09:39:32.354Z,70.00
2023-03-02T09:42:20.200Z,58.70
2023-03-02T09:45:34.680Z,65.50
2023-03-02T09:48:38.529Z,63.20
2023-03-02T09:51:32.898Z,57.90
2023-03-02T09:54:11.869Z,59.60
2023-03-02T09:56:49.511Z,55.40
2023-03-02T09:59:48.734Z,54.90
2023-03-02T10:03:16.303Z,54.50
2023-03-02T10:05:59.548Z,55.60
2023-03-02T10:08:34.231Z,52.20
2023-03-02T10:11:21.894Z,42.90
2023-03-02T10:14:15.404Z,53.00
2023-03-02T10:23:38.990Z,53.90
2023-03-02T10:26:37.269Z,46.10
2023-03-02T10:29:29.328Z,51.00
2023-03-02T10:32:22.558Z,49.20
2023-03-02T10:35:18.384Z,47.70
2023-03-02T10:41:22.771Z,51.00
2023-03-02T10:44:22.926Z,45.90
2023-03-02T10:46:53.925Z,45.80
2023-03-02T10:52:59.753Z,45.40
2023-03-02T10:55:53.151Z,47.50
2023-03-02T10:58:35.225Z,52.70
2023-03-02T11:01:17.769Z,48.90
2023-03-02T11:04:02.604Z,50.20
2023-03-02T11:06:44.729Z,53.80
2023-03-02T11:12:16.850Z,45.00
2023-03-02T11:14:44.989Z,53.10
2023-03-02T11:17:37.256Z,55.70
2023-03-02T11:20:34.795Z,52.60
2023-03-02T11:23:49.740Z,58.20
2023-03-02T11:26:40.801Z,48.90
2023-03-02T11:29:37.470Z,53.40
2023-03-02T11:32:34.701Z,53.50
2023-03-02T11:35:31.802Z,63.80
2023-03-02T11:38:32.887Z,48.20
2023-03-02T11:44:20.433Z,54.10
2023-03-02T11:47:02.936Z,55.80
2023-03-02T11:50:01.320Z,49.80
2023-03-02T11:52:37.480Z,49.50
2023-03-02T11:55:24.503Z,55.00
2023-03-02T11:57:57.197Z,41.20
2023-03-02T12:00:44.072Z,61.40
2023-03-02T12:03:32.108Z,55.10
2023-03-02T12:06:22.826Z,54.20
2023-03-02T12:09:25.647Z,57.40
2023-03-02T12:12:32.978Z,53.70
2023-03-02T12:15:02.266Z,57.10
2023-03-02T12:17:35.205Z,44.60
2023-03-02T12:20:27.879Z,51.20
2023-03-02T12:23:23.100Z,59.10
2023-03-02T12:26:22.126Z,57.80
2023-03-02T12:29:10.155Z,54.50
2023-03-02T12:35:01.966Z,56.30
2023-03-02T12:41:17.653Z,50.60
2023-03-02T12:44:11.970Z,52.50
2023-03-02T12:46:56.419Z,60.60
2023-03-02T12:49:53.694Z,55.30
2023-03-02T12:52:32.451Z,54.00
2023-03-02T12:55:19.502Z,59.90
2023-03-02T12:58:02.592Z,41.90
2023-03-02T13:00:34.716Z,53.10
2023-03-02T13:03:16.985Z,51.60
2023-03-02T13:05:47.501Z,48.70
2023-03-02T13:08:25.489Z,43.40
2023-03-02T13:11:08.260Z,45.50
2023-03-02T13:13:41.914Z,39.50
2023-03-02T13:16:29.882Z,44.90
2023-03-02T13:22:15.133Z,44.70
2023-03-02T13:25:06.246Z,39.60
2023-03-02T13:28:30.218Z,38.40
2023-03-02T13:31:23.758Z,41.00
2023-03-02T13:34:06.102Z,32.60
2023-03-02T13:36:48.255Z,29.70
2023-03-02T13:39:28.648Z,26.30
2023-03-02T13:45:50.488Z,27.30
2023-03-02T13:48:33.231Z,31.60
2023-03-02T13:51:18.343Z,36.20
2023-03-02T13:53:58.833Z,33.70
2023-03-02T13:56:40.788Z,30.50
2023-03-02T13:59:23.524Z,27.80
2023-03-02T14:01:52.108Z,32.00
2023-03-02T14:04:23.750Z,32.30
2023-03-02T14:06:55.144Z,27.40
2023-03-02T14:09:37.164Z,24.00
2023-03-02T14:12:33.189Z,24.60
2023-03-02T14:15:04.683Z,25.10
2023-03-02T14:20:29.229Z,23.90
2023-03-02T14:23:11.409Z,24.90
2023-03-02T14:25:39.785Z,26.20
2023-03-02T14:28:21.106Z,27.20
2023-03-02T14:30:55.911Z,24.80
2023-03-02T14:33:38.427Z,25.40
2023-03-02T14:36:08.070Z,21.90
2023-03-02T14:38:50.069Z,21.50
2023-03-02T14:41:24.346Z,13.10
2023-03-02T14:43:52.831Z,16.50
2023-03-02T14:46:21.486Z,16.50
2023-03-02T14:49:03.739Z,21.50
2023-03-02T14:51:36.874Z,20.50
2023-03-02T14:54:16.048Z,22.70
2023-03-02T14:56:44.634Z,14.60
2023-03-02T14:59:37.945Z,21.90
2023-03-02T15:02:24.901Z,17.50
2023-03-02T15:04:57.680Z,15.20
2023-03-02T15:10:23.975Z,19.30
2023-03-02T15:12:52.406Z,22.90
2023-03-02T15:15:20.877Z,21.90
2023-03-02T15:17:53.071Z,21.60
2023-03-02T15:20:21.580Z,20.10
2023-03-02T15:22:50.034Z,20.00
2023-03-02T15:25:18.596Z,22.70
2023-03-02T15:27:47.145Z,25.50
2023-03-02T15:30:16.419Z,24.40
2023-03-02T15:32:47.190Z,27.40
2023-03-02T15:35:29.721Z,27.30
2023-03-02T15:38:03.263Z,26.60
2023-03-02T15:40:32.047Z,22.80
2023-03-02T15:43:14.329Z,59.40
2023-03-02T15:45:57.071Z,62.70
2023-03-02T15:48:39.184Z,59.70
2023-03-02T15:51:09.446Z,67.10
2023-03-02T15:53:39.494Z,75.50
2023-03-02T15:56:12.099Z,75.30
2023-03-02T15:58:54.328Z,68.50
2023-03-02T16:01:22.779Z,70.80
2023-03-02T16:07:01.623Z,68.10
2023-03-02T16:15:09.651Z,65.40
2023-03-02T16:17:51.792Z,68.90
2023-03-02T16:20:20.391Z,70.30
2023-03-02T16:22:48.623Z,63.60
2023-03-02T16:25:18.445Z,69.90
2023-03-02T16:27:52.562Z,69.40
2023-03-02T16:30:23.560Z,75.30
2023-03-02T16:32:53.217Z,74.20
2023-03-02T16:38:07.754Z,72.80
2023-03-02T16:40:40.370Z,77.70
2023-03-02T16:43:24.641Z,70.40
2023-03-02T16:46:06.866Z,78.40
2023-03-02T16:48:50.209Z,69.60
2023-03-02T16:51:33.243Z,71.80
2023-03-02T16:54:02.352Z,76.00
2023-03-02T16:56:31.253Z,81.00
2023-03-02T17:05:09.757Z,63.00
2023-03-02T17:07:52.912Z,66.00
2023-03-02T17:10:36.540Z,84.50
2023-03-02T17:13:06.909Z,79.30
2023-03-02T17:15:35.780Z,87.10
2023-03-02T17:18:04.613Z,95.70
2023-03-02T17:20:46.823Z,115.40
2023-03-02T17:23:16.593Z,126.50
2023-03-02T17:25:45.260Z,107.40
2023-03-02T17:28:15.203Z,125.30
2023-03-02T17:30:45.047Z,109.50
2023-03-02T17:33:13.726Z,99.20
2023-03-02T17:35:43.121Z,96.60
2023-03-02T17:38:11.734Z,86.80
2023-03-02T17:40:53.977Z,87.80
2023-03-02T17:43:22.486Z,78.00
2023-03-02T17:45:50.899Z,92.10
2023-03-02T17:48:20.510Z,90.60
2023-03-02T17:51:02.607Z,88.10
2023-03-02T17:53:47.813Z,93.00
2023-03-02T17:56:30.225Z,83.00
2023-03-02T17:59:12.583Z,82.20
2023-03-02T18:01:54.688Z,91.20
2023-03-02T18:04:36.825Z,86.60
2023-03-02T18:07:18.986Z,84.60
2023-03-02T18:09:47.430Z,71.50
2023-03-02T18:12:15.875Z,70.20
2023-03-02T18:17:40.562Z,76.80
2023-03-02T18:20:10.539Z,78.50
2023-03-02T18:22:38.646Z,67.70
2023-03-02T18:25:20.833Z,73.90
2023-03-02T18:28:03.008Z,87.90
2023-03-02T18:30:31.686Z,108.10
2023-03-02T18:33:14.032Z,126.90
2023-03-02T18:35:42.367Z,100.70
2023-03-02T18:38:10.820Z,101.10
2023-03-02T18:40:39.069Z,82.60
2023-03-02T18:43:07.293Z,74.00
2023-03-02T18:45:35.799Z,86.70
2023-03-02T18:50:48.817Z,91.60
2023-03-02T18:53:17.222Z,77.70
2023-03-02T18:55:47.166Z,83.30
2023-03-02T18:58:22.633Z,86.60
2023-03-02T19:00:53.412Z,88.20
2023-03-02T19:03:37.264Z,89.40
2023-03-02T19:06:20.840Z,81.10
2023-03-02T19:08:49.791Z,74.50
2023-03-02T19:11:18.280Z,79.80
2023-03-02T19:13:47.556Z,73.40
2023-03-02T19:16:18.204Z,78.80
2023-03-02T19:19:00.675Z,66.20
2023-03-02T19:24:11.317Z,75.10
2023-03-02T19:26:39.801Z,71.00
2023-03-02T19:29:08.260Z,57.20
2023-03-02T19:31:39.285Z,57.40
2023-03-02T19:34:07.781Z,66.90
2023-03-02T19:36:36.534Z,87.80
2023-03-02T19:39:05.051Z,87.40
2023-03-02T19:41:47.451Z,81.20
2023-03-02T19:44:16.754Z,67.50
2023-03-02T19:46:45.252Z,74.30
2023-03-02T19:49:15.260Z,68.30
2023-03-02T19:51:44.831Z,69.90
2023-03-02T19:54:13.389Z,50.30
2023-03-02T19:56:43.797Z,66.60
2023-03-02T19:59:12.393Z,74.60
2023-03-02T20:01:40.875Z,62.00
2023-03-02T20:04:09.358Z,60.20
2023-03-02T20:06:38.273Z,67.70
2023-03-02T20:09:08.462Z,42.10
2023-03-02T20:11:50.681Z,54.70
2023-03-02T20:14:32.795Z,62.30
2023-03-02T20:17:05.753Z,67.30
2023-03-02T20:19:34.195Z,48.50
2023-03-02T20:22:04.498Z,49.50
2023-03-02T20:24:33.134Z,59.00
2023-03-02T20:27:01.696Z,45.10
2023-03-02T20:29:30.437Z,64.50
2023-03-02T20:31:58.921Z,49.90
2023-03-02T20:34:42.556Z,65.90
2023-03-02T20:37:26.126Z,65.90
2023-03-02T20:40:09.955Z,66.80
2023-03-02T20:42:52.876Z,51.00
2023-03-02T20:45:22.653Z,73.40
2023-03-02T20:48:06.452Z,76.30
2023-03-02T20:50:37.386Z,55.30
2023-03-02T20:53:20.601Z,62.80
2023-03-02T20:55:49.338Z,69.10
2023-03-02T20:58:19.529Z,85.90
2023-03-02T21:00:48.858Z,66.10
2023-03-02T21:03:18.558Z,67.50
2023-03-02T21:05:47.637Z,63.40
2023-03-02T21:08:16.451Z,70.50
2023-03-02T21:10:45.172Z,58.30
2023-03-02T21:13:27.173Z,63.20
2023-03-02T21:16:09.616Z,67.50
2023-03-02T21:18:52.730Z,67.50
2023-03-02T21:21:41.707Z,64.50
2023-03-02T21:24:24.449Z,67.70
2023-03-02T21:27:07.415Z,67.20
2023-03-02T21:32:32.217Z,61.30
2023-03-02T21:35:18.085Z,72.30
2023-03-02T21:38:04.272Z,66.20
2023-03-02T21:40:46.302Z,63.40
2023-03-02T21:43:28.510Z,59.90
2023-03-02T21:45:56.714Z,55.20
2023-03-02T21:48:38.953Z,60.00
2023-03-02T21:51:21.056Z,56.10
2023-03-02T21:54:04.619Z,54.20
2023-03-02T21:56:33.352Z,48.10
2023-03-02T21:59:03.148Z,54.70
2023-03-02T22:01:45.258Z,59.00
2023-03-02T22:04:27.267Z,61.50
2023-03-02T22:07:09.356Z,44.50
2023-03-02T22:09:37.599Z,55.90
2023-03-02T22:12:22.854Z,55.40
2023-03-02T22:15:14.576Z,60.90
2023-03-02T22:17:56.720Z,60.30
2023-03-02T22:20:43.036Z,64.90
2023-03-02T22:23:21.170Z,62.50
2023-03-02T22:25:55.849Z,60.80
2023-03-02T22:28:41.138Z,57.40
2023-03-02T22:31:22.724Z,53.30
2023-03-02T22:33:50.914Z,64.20
2023-03-02T22:36:32.942Z,50.00
2023-03-02T22:39:29.143Z,63.60
2023-03-02T22:42:24.089Z,61.40
2023-03-02T22:45:22.228Z,57.50
2023-03-02T22:48:28.792Z,54.30
2023-03-02T22:54:21.778Z,54.90
2023-03-02T22:57:14.997Z,54.00
2023-03-02T23:00:39.527Z,47.50
2023-03-02T23:04:18.295Z,41.90
2023-03-02T23:08:21.362Z,53.60
2023-03-02T23:12:23.670Z,54.70
2023-03-02T23:16:19.958Z,48.10
2023-03-02T23:19:59.698Z,45.60
2023-03-02T23:24:11.226Z,48.40
2023-03-02T23:28:42.870Z,55.60
2023-03-02T23:32:24.726Z,47.10
2023-03-02T23:35:56.788Z,47.90
2023-03-02T23:39:45.100Z,49.70
2023-03-02T23:43:04.415Z,46.90
2023-03-02T23:46:43.453Z,44.40
2023-03-02T23:50:21.107Z,50.70
2023-03-02T23:53:59.966Z,49.80
2023-03-02T23:58:21.830Z,44.30
